createdAt,value
2017-07-04T00:00:29.096Z,17.00
2017-07-04T00:02:55.661Z,17.00
2017-07-04T00:05:22.155Z,16.90
2017-07-04T00:07:49.388Z,16.80
2017-07-04T00:10:15.924Z,16.80
2017-07-04T00:12:43.142Z,16.70
2017-07-04T00:15:10.425Z,16.70
2017-07-04T00:17:37.642Z,16.60
2017-07-04T00:20:04.114Z,16.60
2017-07-04T00:22:31.398Z,16.60
2017-07-04T00:24:57.862Z,16.50
2017-07-04T00:27:24.486Z,16.50
2017-07-04T00:29:50.991Z,16.50
2017-07-04T00:32:17.472Z,16.50
2017-07-04T00:34:43.986Z,16.50
2017-07-04T00:37:10.473Z,16.50
2017-07-04T00:39:36.980Z,16.50
2017-07-04T00:42:03.474Z,16.60
2017-07-04T00:44:30.009Z,16.60
2017-07-04T00:46:56.527Z,16.50
2017-07-04T00:49:23.047Z,16.60
2017-07-04T00:51:49.517Z,16.60
2017-07-04T00:54:16.058Z,16.60
2017-07-04T00:56:42.543Z,16.60
2017-07-04T00:59:09.025Z,16.60
2017-07-04T01:01:35.549Z,16.60
2017-07-04T01:04:02.054Z,16.60
2017-07-04T01:06:28.529Z,16.60
2017-07-04T01:08:55.055Z,16.50
2017-07-04T01:11:21.563Z,16.50
2017-07-04T01:13:48.086Z,16.50
2017-07-04T01:16:14.571Z,16.50
2017-07-04T01:18:41.097Z,16.50
2017-07-04T01:21:07.578Z,16.40
2017-07-04T01:23:34.067Z,16.40
2017-07-04T01:26:00.554Z,16.40
2017-07-04T01:28:27.027Z,16.30
2017-07-04T01:30:53.542Z,16.30
2017-07-04T01:33:20.058Z,16.30
2017-07-04T01:35:46.557Z,16.30
2017-07-04T01:38:13.081Z,16.30
2017-07-04T01:40:40.285Z,16.20
2017-07-04T01:43:06.832Z,16.20
2017-07-04T01:45:33.354Z,16.20
2017-07-04T01:47:59.989Z,16.20
2017-07-04T01:50:26.492Z,16.20
2017-07-04T01:52:53.017Z,16.20
2017-07-04T01:55:19.528Z,16.10
2017-07-04T01:57:45.999Z,16.10
2017-07-04T02:00:12.603Z,16.10
2017-07-04T02:02:39.821Z,16.10
2017-07-04T02:05:06.394Z,16.00
2017-07-04T02:07:33.655Z,16.00
2017-07-04T02:10:00.180Z,16.00
2017-07-04T02:12:27.495Z,16.00
2017-07-04T02:14:54.000Z,15.90
2017-07-04T02:17:20.459Z,16.00
2017-07-04T02:19:46.959Z,15.90
2017-07-04T02:22:13.439Z,15.90
2017-07-04T02:24:39.973Z,15.90
2017-07-04T02:27:07.180Z,15.90
2017-07-04T02:29:33.643Z,15.90
2017-07-04T02:32:00.129Z,15.90
2017-07-04T02:34:26.613Z,15.90
2017-07-04T02:36:53.126Z,16.00
2017-07-04T02:39:19.605Z,16.00
2017-07-04T02:41:46.812Z,16.00
2017-07-04T02:44:13.371Z,16.00
2017-07-04T02:46:40.571Z,16.00
2017-07-04T02:49:07.103Z,16.00
2017-07-04T02:51:33.570Z,16.00
2017-07-04T02:54:00.092Z,16.00
2017-07-04T02:56:26.551Z,16.00
2017-07-04T02:58:53.044Z,16.10
2017-07-04T03:01:19.666Z,16.10
2017-07-04T03:03:46.143Z,16.10
2017-07-04T03:06:12.642Z,16.20
2017-07-04T03:08:39.115Z,16.20
2017-07-04T03:11:05.596Z,16.20
2017-07-04T03:13:32.312Z,16.20
2017-07-04T03:15:58.791Z,16.30
2017-07-04T03:18:25.277Z,16.30
2017-07-04T03:20:51.755Z,16.30
2017-07-04T03:23:18.240Z,16.30
2017-07-04T03:25:44.766Z,16.40
2017-07-04T03:28:11.994Z,16.40
2017-07-04T03:30:38.461Z,16.40
2017-07-04T03:33:05.053Z,16.50
2017-07-04T03:35:31.554Z,16.50
2017-07-04T03:37:58.063Z,16.50
2017-07-04T03:40:24.539Z,16.40
2017-07-04T03:42:51.070Z,16.40
2017-07-04T03:45:17.545Z,16.40
2017-07-04T03:47:44.747Z,16.40
2017-07-04T03:50:11.266Z,16.40
2017-07-04T03:52:37.715Z,16.40
2017-07-04T03:55:04.229Z,16.40
2017-07-04T03:57:30.746Z,16.40
2017-07-04T03:59:57.223Z,16.40
2017-07-04T04:02:23.822Z,16.40
2017-07-04T04:04:50.321Z,16.40
2017-07-04T04:07:17.573Z,16.40
2017-07-04T04:09:44.812Z,16.40
2017-07-04T04:12:12.076Z,16.30
2017-07-04T04:14:39.328Z,16.30
2017-07-04T04:17:06.544Z,16.30
2017-07-04T04:19:33.068Z,16.30
2017-07-04T04:21:59.545Z,16.20
2017-07-04T04:24:26.769Z,16.20
2017-07-04T04:26:53.284Z,16.20
2017-07-04T04:29:19.775Z,16.20
2017-07-04T04:31:46.355Z,16.30
2017-07-04T04:34:12.823Z,16.30
2017-07-04T04:36:40.175Z,16.40
2017-07-04T04:39:06.696Z,16.40
2017-07-04T04:41:33.194Z,16.50
2017-07-04T04:43:59.713Z,16.50
2017-07-04T04:46:26.213Z,16.60
2017-07-04T04:48:53.469Z,16.90
2017-07-04T04:51:19.941Z,16.90
2017-07-04T04:53:46.516Z,17.00
2017-07-04T04:56:13.735Z,17.20
2017-07-04T04:58:40.217Z,17.20
2017-07-04T05:01:07.107Z,17.30
2017-07-04T05:03:33.601Z,17.40
2017-07-04T05:06:00.163Z,17.50
2017-07-04T05:08:26.666Z,17.70
2017-07-04T05:10:53.151Z,17.80
2017-07-04T05:13:19.650Z,17.90
2017-07-04T05:15:46.181Z,17.90
2017-07-04T05:18:12.738Z,18.00
2017-07-04T05:20:39.230Z,18.00
2017-07-04T05:23:06.438Z,18.40
2017-07-04T05:25:32.937Z,18.40
2017-07-04T05:27:59.406Z,18.50
2017-07-04T05:30:25.921Z,18.60
2017-07-04T05:32:52.394Z,18.70
2017-07-04T05:35:19.691Z,18.80
2017-07-04T05:37:46.176Z,18.80
2017-07-04T05:40:12.636Z,18.80
2017-07-04T05:42:39.183Z,18.80
2017-07-04T05:45:05.673Z,18.80
2017-07-04T05:47:32.934Z,18.90
2017-07-04T05:49:59.401Z,18.90
2017-07-04T05:52:25.968Z,18.90
2017-07-04T05:54:52.462Z,18.90
2017-07-04T05:57:18.956Z,18.90
2017-07-04T05:59:46.219Z,19.10
2017-07-04T06:02:12.727Z,19.10
2017-07-04T06:04:39.427Z,19.30
2017-07-04T06:07:05.925Z,19.50
2017-07-04T06:09:32.421Z,19.60
2017-07-04T06:11:58.941Z,19.70
2017-07-04T06:14:25.422Z,19.70
2017-07-04T06:16:51.996Z,19.80
2017-07-04T06:19:18.535Z,19.80
2017-07-04T06:21:45.023Z,19.90
2017-07-04T06:24:11.698Z,20.10
2017-07-04T06:26:38.175Z,20.30
2017-07-04T06:29:05.397Z,20.40
2017-07-04T06:31:31.932Z,20.40
2017-07-04T06:33:58.399Z,20.50
2017-07-04T06:36:25.642Z,20.60
2017-07-04T06:38:52.881Z,20.70
2017-07-04T06:41:19.334Z,20.70
2017-07-04T06:43:45.852Z,20.80
2017-07-04T06:46:13.048Z,21.10
2017-07-04T06:48:39.513Z,21.00
2017-07-04T06:51:06.018Z,21.20
2017-07-04T06:53:32.472Z,21.50
2017-07-04T06:55:58.988Z,21.80
2017-07-04T06:58:25.462Z,22.20
2017-07-04T07:00:52.720Z,22.90
2017-07-04T07:03:19.951Z,23.20
2017-07-04T07:05:46.418Z,23.20
2017-07-04T07:08:12.928Z,23.50
2017-07-04T07:10:40.137Z,23.90
2017-07-04T07:13:06.878Z,23.90
2017-07-04T07:15:33.461Z,24.10
2017-07-04T07:18:00.728Z,24.30
2017-07-04T07:20:27.228Z,24.30
2017-07-04T07:22:53.693Z,24.50
2017-07-04T07:25:20.219Z,24.80
2017-07-04T07:27:46.702Z,25.10
2017-07-04T07:30:13.190Z,25.30
2017-07-04T07:32:39.914Z,25.40
2017-07-04T07:35:06.419Z,25.40
2017-07-04T07:37:32.955Z,25.40
2017-07-04T07:39:59.471Z,25.30
2017-07-04T07:42:25.979Z,25.10
2017-07-04T07:44:52.491Z,24.70
2017-07-04T07:47:19.023Z,24.40
2017-07-04T07:49:45.522Z,24.10
2017-07-04T07:52:12.092Z,23.80
2017-07-04T07:54:38.742Z,23.60
2017-07-04T07:57:05.256Z,23.40
2017-07-04T07:59:31.760Z,23.30
2017-07-04T08:01:58.266Z,23.10
2017-07-04T08:04:24.745Z,23.10
2017-07-04T08:06:52.022Z,22.90
2017-07-04T08:09:18.519Z,22.90
2017-07-04T08:11:45.871Z,22.70
2017-07-04T08:14:13.101Z,22.70
2017-07-04T08:16:39.595Z,22.70
2017-07-04T08:19:06.150Z,22.60
2017-07-04T08:21:32.599Z,22.60
2017-07-04T08:23:59.084Z,22.50
2017-07-04T08:26:25.561Z,22.50
2017-07-04T08:28:52.068Z,22.40
2017-07-04T08:31:18.556Z,22.50
2017-07-04T08:33:45.781Z,22.50
2017-07-04T08:36:12.345Z,22.50
2017-07-04T08:38:39.572Z,22.80
2017-07-04T08:41:06.062Z,22.80
2017-07-04T08:43:32.554Z,22.90
2017-07-04T08:45:59.780Z,23.20
2017-07-04T08:48:26.678Z,23.10
2017-07-04T08:50:53.126Z,23.30
2017-07-04T08:53:19.630Z,23.50
2017-07-04T08:55:46.123Z,23.70
2017-07-04T08:58:12.639Z,24.00
2017-07-04T09:00:39.129Z,24.40
2017-07-04T09:03:05.661Z,24.90
2017-07-04T09:05:32.137Z,25.30
2017-07-04T09:07:58.665Z,25.80
2017-07-04T09:10:25.166Z,26.20
2017-07-04T09:12:51.693Z,26.60
2017-07-04T09:15:18.198Z,27.00
2017-07-04T09:17:44.673Z,27.40
2017-07-04T09:20:11.254Z,27.70
2017-07-04T09:22:37.701Z,28.20
2017-07-04T09:25:04.902Z,29.10
2017-07-04T09:27:31.431Z,29.10
2017-07-04T09:29:57.889Z,29.50
2017-07-04T09:32:24.399Z,29.80
2017-07-04T09:34:50.858Z,30.10
2017-07-04T09:37:17.475Z,30.20
2017-07-04T09:39:43.950Z,30.30
2017-07-04T09:42:11.183Z,30.60
2017-07-04T09:44:37.714Z,30.50
2017-07-04T09:47:04.189Z,30.70
2017-07-04T09:49:30.677Z,30.70
2017-07-04T09:51:57.177Z,30.50
2017-07-04T09:54:23.720Z,30.50
2017-07-04T09:56:50.253Z,30.60
2017-07-04T09:59:16.722Z,30.70
2017-07-04T10:01:43.228Z,31.00
2017-07-04T10:04:09.719Z,31.10
2017-07-04T10:06:36.246Z,31.10
2017-07-04T10:09:02.843Z,31.10
2017-07-04T10:11:29.293Z,30.70
2017-07-04T10:13:55.786Z,30.10
2017-07-04T10:16:22.267Z,29.90
2017-07-04T10:18:49.469Z,29.90
2017-07-04T10:21:16.046Z,29.90
2017-07-04T10:23:43.275Z,29.30
2017-07-04T10:26:09.743Z,29.30
2017-07-04T10:28:36.967Z,28.40
2017-07-04T10:31:03.513Z,28.30
2017-07-04T10:33:30.743Z,27.50
2017-07-04T10:35:57.206Z,27.50
2017-07-04T10:38:24.467Z,27.00
2017-07-04T10:40:50.952Z,27.00
2017-07-04T10:43:17.444Z,27.20
2017-07-04T10:45:43.965Z,27.60
2017-07-04T10:48:10.436Z,28.00
2017-07-04T10:50:36.939Z,28.30
2017-07-04T10:53:03.473Z,28.40
2017-07-04T10:55:29.971Z,28.10
2017-07-04T10:57:57.187Z,27.40
2017-07-04T11:00:23.713Z,27.40
2017-07-04T11:02:50.211Z,27.10
2017-07-04T11:05:16.988Z,26.90
2017-07-04T11:07:43.456Z,26.90
2017-07-04T11:10:10.677Z,26.60
2017-07-04T11:12:37.176Z,26.50
2017-07-04T11:15:03.684Z,26.40
2017-07-04T11:17:30.218Z,26.10
2017-07-04T11:19:57.450Z,25.70
2017-07-04T11:22:24.715Z,25.60
2017-07-04T11:24:52.035Z,25.60
2017-07-04T11:27:18.540Z,25.50
2017-07-04T11:29:45.003Z,25.70
2017-07-04T11:32:11.496Z,25.80
2017-07-04T11:34:37.954Z,25.70
2017-07-04T11:37:04.473Z,25.70
2017-07-04T11:39:30.982Z,25.80
2017-07-04T11:41:57.468Z,25.80
2017-07-04T11:44:25.071Z,25.80
2017-07-04T11:46:51.558Z,25.90
2017-07-04T11:49:18.031Z,25.80
2017-07-04T11:51:44.546Z,25.80
2017-07-04T11:54:12.268Z,25.80
2017-07-04T11:56:38.815Z,25.80
2017-07-04T11:59:05.314Z,25.80
2017-07-04T12:01:31.789Z,25.80
2017-07-04T12:03:58.317Z,25.70
2017-07-04T12:06:24.788Z,25.70
2017-07-04T12:08:51.270Z,25.70
2017-07-04T12:11:17.773Z,25.70
2017-07-04T12:13:44.247Z,25.60
2017-07-04T12:16:10.788Z,25.60
2017-07-04T12:18:37.243Z,25.50
2017-07-04T12:21:03.744Z,25.50
2017-07-04T12:23:30.281Z,25.50
2017-07-04T12:25:56.767Z,25.40
2017-07-04T12:28:23.246Z,25.40
2017-07-04T12:30:49.854Z,25.40
2017-07-04T12:33:16.330Z,25.40
2017-07-04T12:35:42.856Z,25.50
2017-07-04T12:38:09.398Z,25.40
2017-07-04T12:40:36.614Z,25.40
2017-07-04T12:43:03.142Z,25.40
2017-07-04T12:45:29.638Z,25.40
2017-07-04T12:47:56.148Z,25.40
2017-07-04T12:50:23.397Z,25.30
2017-07-04T12:52:50.614Z,25.30
2017-07-04T12:55:17.080Z,25.30
2017-07-04T12:57:44.342Z,25.40
2017-07-04T13:00:10.835Z,25.30
2017-07-04T13:02:37.303Z,25.30
2017-07-04T13:05:04.565Z,25.40
2017-07-04T13:07:31.057Z,25.40
2017-07-04T13:09:57.764Z,25.40
2017-07-04T13:12:24.266Z,25.40
2017-07-04T13:14:51.469Z,25.50
2017-07-04T13:17:17.985Z,25.40
2017-07-04T13:19:44.465Z,25.50
2017-07-04T13:22:11.705Z,25.50
2017-07-04T13:24:38.266Z,25.50
2017-07-04T13:27:04.836Z,25.50
2017-07-04T13:29:31.312Z,25.50
2017-07-04T13:31:57.789Z,25.50
2017-07-04T13:34:24.312Z,25.50
2017-07-04T13:36:50.806Z,25.50
2017-07-04T13:39:17.299Z,25.50
2017-07-04T13:41:44.357Z,25.40
2017-07-04T13:44:10.885Z,25.50
2017-07-04T13:46:37.416Z,25.50
2017-07-04T13:49:03.893Z,25.50
2017-07-04T13:51:31.161Z,25.40
2017-07-04T13:53:57.658Z,25.40
2017-07-04T13:56:24.120Z,25.40
2017-07-04T13:58:51.363Z,25.20
2017-07-04T14:01:18.619Z,25.10
2017-07-04T14:03:45.914Z,25.10
2017-07-04T14:06:12.435Z,25.00
2017-07-04T14:08:38.974Z,25.00
2017-07-04T14:11:05.482Z,25.00
2017-07-04T14:13:31.972Z,24.90
2017-07-04T14:15:58.546Z,24.90
2017-07-04T14:18:25.027Z,24.90
2017-07-04T14:20:51.541Z,24.90
2017-07-04T14:23:18.108Z,24.90
2017-07-04T14:25:44.646Z,24.90
2017-07-04T14:28:11.157Z,25.00
2017-07-04T14:30:37.647Z,25.00
2017-07-04T14:33:04.163Z,25.00
2017-07-04T14:35:31.392Z,25.00
2017-07-04T14:37:57.882Z,25.00
2017-07-04T14:40:24.653Z,25.00
2017-07-04T14:42:51.251Z,25.00
2017-07-04T14:45:17.739Z,25.00
2017-07-04T14:47:44.299Z,24.90
2017-07-04T14:50:10.780Z,24.90
2017-07-04T14:52:37.255Z,24.90
2017-07-04T14:55:04.791Z,24.90
2017-07-04T14:57:31.287Z,24.90
2017-07-04T14:59:57.772Z,24.90
2017-07-04T15:02:25.020Z,24.90
2017-07-04T15:04:51.510Z,24.80
2017-07-04T15:07:18.106Z,24.80
2017-07-04T15:09:44.602Z,24.80
2017-07-04T15:12:11.050Z,24.80
2017-07-04T15:14:38.295Z,24.70
2017-07-04T15:17:04.781Z,24.70
2017-07-04T15:19:31.288Z,24.70
2017-07-04T15:21:57.818Z,24.70
2017-07-04T15:24:25.037Z,24.70
2017-07-04T15:26:51.581Z,24.70
2017-07-04T15:29:18.830Z,24.60
2017-07-04T15:31:45.333Z,24.60
2017-07-04T15:34:11.852Z,24.60
2017-07-04T15:36:38.340Z,24.50
2017-07-04T15:39:05.552Z,24.50
2017-07-04T15:41:32.070Z,24.50
2017-07-04T15:43:58.570Z,24.50
2017-07-04T15:46:25.064Z,24.50
2017-07-04T15:48:51.796Z,24.50
2017-07-04T15:51:18.361Z,24.40
2017-07-04T15:53:45.582Z,24.40
2017-07-04T15:56:12.115Z,24.40
2017-07-04T15:58:38.575Z,24.40
2017-07-04T16:01:06.133Z,24.30
2017-07-04T16:03:33.426Z,24.40
2017-07-04T16:06:00.407Z,24.40
2017-07-04T16:08:27.259Z,24.40
2017-07-04T16:10:54.610Z,24.40
2017-07-04T16:13:22.111Z,24.40
2017-07-04T16:15:48.862Z,24.30
2017-07-04T16:18:15.465Z,24.40
2017-07-04T16:20:42.020Z,24.30
2017-07-04T16:23:08.822Z,24.30
2017-07-04T16:25:35.388Z,24.30
2017-07-04T16:28:01.998Z,24.30
2017-07-04T16:30:29.308Z,24.30
2017-07-04T16:32:55.951Z,24.30
2017-07-04T16:35:23.308Z,24.30
2017-07-04T16:37:49.871Z,24.20
2017-07-04T16:40:16.505Z,24.20
2017-07-04T16:42:43.262Z,24.20
2017-07-04T16:45:09.902Z,24.20
2017-07-04T16:47:36.490Z,24.20
2017-07-04T16:50:03.866Z,24.10
2017-07-04T16:52:30.522Z,24.10
2017-07-04T16:54:57.846Z,24.00
2017-07-04T16:57:25.115Z,24.00
2017-07-04T16:59:52.415Z,24.00
2017-07-04T17:02:19.293Z,24.00
2017-07-04T17:04:46.761Z,23.90
2017-07-04T17:07:13.317Z,23.90
2017-07-04T17:09:40.018Z,23.90
2017-07-04T17:12:06.676Z,23.90
2017-07-04T17:14:33.326Z,23.90
2017-07-04T17:17:01.707Z,23.90
2017-07-04T17:19:28.350Z,23.80
2017-07-04T17:21:55.168Z,23.80
2017-07-04T17:24:21.815Z,23.80
2017-07-04T17:26:48.481Z,23.70
2017-07-04T17:29:15.482Z,23.70
2017-07-04T17:31:42.188Z,23.70
2017-07-04T17:34:08.768Z,23.60
2017-07-04T17:36:35.406Z,23.60
2017-07-04T17:39:02.264Z,23.60
2017-07-04T17:41:28.915Z,23.60
2017-07-04T17:43:55.755Z,23.60
2017-07-04T17:46:22.382Z,23.50
2017-07-04T17:48:56.007Z,23.50
2017-07-04T17:51:23.342Z,23.50
2017-07-04T17:53:50.148Z,23.50
2017-07-04T17:56:17.462Z,23.50
2017-07-04T17:58:46.389Z,23.50
2017-07-04T18:01:14.329Z,23.50
2017-07-04T18:03:41.825Z,23.40
2017-07-04T18:06:08.465Z,23.40
2017-07-04T18:08:35.173Z,23.30
2017-07-04T18:11:01.767Z,23.30
2017-07-04T18:13:28.278Z,23.20
2017-07-04T18:15:55.036Z,23.20
2017-07-04T18:18:21.524Z,23.20
2017-07-04T18:20:48.018Z,23.10
2017-07-04T18:23:14.669Z,23.10
2017-07-04T18:25:41.889Z,23.00
2017-07-04T18:28:08.357Z,23.00
2017-07-04T18:30:35.679Z,23.00
2017-07-04T18:33:02.151Z,22.90
2017-07-04T18:35:28.691Z,22.90
2017-07-04T18:37:55.173Z,22.90
2017-07-04T18:40:21.693Z,22.80
2017-07-04T18:42:48.241Z,22.80
2017-07-04T18:45:14.752Z,22.70
2017-07-04T18:47:41.223Z,22.70
2017-07-04T18:50:08.469Z,22.50
2017-07-04T18:52:34.941Z,22.50
2017-07-04T18:55:01.435Z,22.50
2017-07-04T18:57:28.006Z,22.40
2017-07-04T18:59:54.507Z,22.40
2017-07-04T19:02:21.739Z,22.30
2017-07-04T19:04:48.285Z,22.30
2017-07-04T19:07:15.645Z,22.30
2017-07-04T19:09:42.438Z,22.20
2017-07-04T19:12:08.957Z,22.20
2017-07-04T19:14:35.465Z,22.20
2017-07-04T19:17:02.001Z,22.10
2017-07-04T19:19:28.514Z,22.10
2017-07-04T19:21:55.929Z,22.00
2017-07-04T19:24:22.413Z,22.00
2017-07-04T19:26:49.641Z,21.90
2017-07-04T19:29:16.365Z,21.80
2017-07-04T19:31:42.911Z,21.80
2017-07-04T19:34:09.380Z,21.70
2017-07-04T19:36:35.910Z,21.70
2017-07-04T19:39:02.501Z,21.60
2017-07-04T19:41:28.967Z,21.50
2017-07-04T19:43:55.663Z,21.40
2017-07-04T19:46:22.158Z,21.30
2017-07-04T19:48:48.704Z,21.20
2017-07-04T19:51:15.226Z,21.10
2017-07-04T19:53:41.679Z,21.10
2017-07-04T19:56:08.227Z,21.00
2017-07-04T19:58:34.681Z,20.90
2017-07-04T20:01:01.172Z,20.90
2017-07-04T20:03:27.708Z,20.80
2017-07-04T20:05:54.214Z,20.70
2017-07-04T20:08:20.691Z,20.70
2017-07-04T20:10:48.208Z,20.60
2017-07-04T20:13:14.694Z,20.50
2017-07-04T20:15:41.189Z,20.50
2017-07-04T20:18:07.736Z,20.40
2017-07-04T20:20:34.193Z,20.40
2017-07-04T20:23:00.657Z,20.30
2017-07-04T20:25:27.924Z,20.20
2017-07-04T20:27:54.400Z,20.20
2017-07-04T20:30:21.012Z,20.10
2017-07-04T20:32:47.548Z,20.10
2017-07-04T20:35:14.109Z,20.00
2017-07-04T20:37:40.668Z,20.00
2017-07-04T20:40:07.969Z,19.90
2017-07-04T20:42:34.502Z,19.90
2017-07-04T20:45:00.990Z,19.80
2017-07-04T20:47:27.452Z,19.80
2017-07-04T20:49:53.985Z,19.70
2017-07-04T20:52:20.459Z,19.70
2017-07-04T20:54:46.991Z,19.70
2017-07-04T20:57:13.485Z,19.60
2017-07-04T20:59:40.014Z,19.50
2017-07-04T21:02:06.555Z,19.50
2017-07-04T21:04:33.020Z,19.50
2017-07-04T21:06:59.512Z,19.40
2017-07-04T21:09:26.050Z,19.40
2017-07-04T21:11:52.519Z,19.30
2017-07-04T21:14:19.062Z,19.30
2017-07-04T21:16:45.538Z,19.20
2017-07-04T21:19:12.053Z,19.20
2017-07-04T21:21:39.319Z,19.20
2017-07-04T21:24:05.818Z,19.10
2017-07-04T21:26:32.288Z,19.10
2017-07-04T21:28:58.795Z,19.10
2017-07-04T21:31:26.038Z,19.00
2017-07-04T21:33:53.295Z,19.00
2017-07-04T21:36:20.959Z,18.90
2017-07-04T21:38:49.053Z,18.90
2017-07-04T21:41:15.518Z,18.90
2017-07-04T21:43:42.028Z,18.80
2017-07-04T21:46:08.534Z,18.80
2017-07-04T21:48:35.210Z,18.80
2017-07-04T21:51:01.701Z,18.70
2017-07-04T21:53:28.950Z,18.60
2017-07-04T21:55:56.206Z,18.60
2017-07-04T21:58:23.431Z,18.60
2017-07-04T22:00:49.933Z,18.50
2017-07-04T22:03:16.422Z,18.50
2017-07-04T22:05:42.948Z,18.50
2017-07-04T22:08:10.240Z,18.40
2017-07-04T22:10:36.750Z,18.40
2017-07-04T22:13:03.290Z,18.40
2017-07-04T22:15:29.739Z,18.30
2017-07-04T22:17:56.291Z,18.30
2017-07-04T22:20:22.822Z,18.30
2017-07-04T22:22:49.323Z,18.20
2017-07-04T22:25:15.850Z,18.20
2017-07-04T22:27:42.330Z,18.20
2017-07-04T22:30:08.814Z,18.20
2017-07-04T22:32:35.312Z,18.10
2017-07-04T22:35:01.853Z,18.10
2017-07-04T22:37:29.117Z,18.00
2017-07-04T22:39:56.542Z,18.00
2017-07-04T22:42:23.055Z,18.00
2017-07-04T22:44:49.694Z,18.00
2017-07-04T22:47:16.230Z,17.90
2017-07-04T22:49:42.696Z,17.90
2017-07-04T22:52:10.203Z,17.90
2017-07-04T22:54:36.686Z,17.80
2017-07-04T22:57:03.923Z,17.80
2017-07-04T22:59:30.481Z,17.80
2017-07-04T23:01:56.974Z,17.80
2017-07-04T23:04:23.498Z,17.70
2017-07-04T23:06:49.978Z,17.70
2017-07-04T23:09:17.202Z,17.60
2017-07-04T23:11:43.756Z,17.60
2017-07-04T23:14:10.971Z,17.60
2017-07-04T23:16:37.478Z,17.60
2017-07-04T23:19:03.975Z,17.50
2017-07-04T23:21:31.183Z,17.50
2017-07-04T23:23:57.710Z,17.50
2017-07-04T23:26:24.233Z,17.50
2017-07-04T23:28:50.768Z,17.50
2017-07-04T23:31:17.288Z,17.40
2017-07-04T23:33:43.790Z,17.40
2017-07-04T23:36:10.306Z,17.40
2017-07-04T23:38:36.784Z,17.40
2017-07-04T23:41:03.310Z,17.30
2017-07-04T23:43:29.826Z,17.30
2017-07-04T23:45:56.312Z,17.20
2017-07-04T23:48:22.826Z,17.20
2017-07-04T23:50:49.345Z,17.20
2017-07-04T23:53:15.903Z,17.20
2017-07-04T23:55:42.468Z,17.20
2017-07-04T23:58:08.933Z,17.10
